JORGE PRADO, SEGUNDO EN REDSAND. GANA DE NUEVO JONASS

Jonass_GP03_2018_RedSand_AD9P1915

Jorge Prado ha conseguido el segundo podio de la temporada en el Gran Premio de la Comunitat Valenciana de MX2. El piloto español ha sido segundo tras Pauls Jonass, que, de momento, ha sumado todas las mangas que se han disputado hasta la fecha, seis. Tercero en el podio ha sido Thomas Kjer Olsen, que ha bregado como un valiente en las dos mangas por meterse en los puestos de honor. En cuanto a los otros españoles de la categoría, Rubén Fernández ha firmado un excelente Top 15, Jorge Zaragoza ha sido decimoséptimo e Iker Larrañaga, el 18.

La primera manga comenzó teniendo a un protagonista poco habitual, Henri Jacobi, que se ha llevado el holeshot. Por detrás ya andaba Pauls Jonass, que pocos metros después del primer giro ya se deshacía de su rival, por lo que comenzó a emprender el camino hacía la consecución de una nueva victoria esta temporada. En esos momentos, Jorge Prado rodaba en la quinta posición, no había tenido su mejor salida de la valla. No obstante, comenzó a buscar incesantemente al alemán de KTM, le ganó la partida y comenzó el primer acto de una película que dejó a todos los asistentes boquiabiertos. El gallego y Conrad Mewse, ex compañero de Prado en el equipo Júnior de la marca naranja, ex campeón del mundo de 85cc y un largo etc, tuvieron una manga de batalla increíble.

Pero el británico no estaba predispuesto a ceder la segunda posición y se lo puso muy caro a su contrincante. Sin embargo, a falta de nueve minutos, Jorge Prado marcó el mejor tiempo hasta el momento de todos los integrantes de la parrilla y se ponía segundo tras Jonass. Pero lejos de ser un camino de rosas hasta la línea de meta, se unió al juego Thomas Kjer Olsen, que venía de atrás con mucha fuerza. El de Husqvarna apretó, al igual que siguió haciendo Mewse, a Prado, pero fue el lucense el que cruzaba la bandera de cuadros segundo, justo por delante de Olsen que frustró las aspiraciones de Mewse.

Jorge Zaragoza, que había tenido muchos problemas durante el fin de semana, cuajaba una gran primera manga acabando decimotercero. También dejó un gran sabor de boca en esta primera salida a pista Rubén Fernández, que pese a ir perdiendo varias posiciones durante la más de media hora ha sido 19.

Por su parte, Iker Larrañaga, que disputó gran parte de la carrera sin gafas, fue vigésimosegundo.

MX2 – Grand Prix Race 1 – Classification
Pos Nr Rider Nat. Fed. Bike Time laps Diff. First Diff. Prev. Bestlaptime in lap Speed
1 1 Jonass, Pauls LAT LAMSF KTM 35:20.628 18 0:00.000 0:00.000 1:50.443 2 56.3
2 61 Prado, Jorge ESP RFME KTM 35:24.514 18 0:03.886 0:03.886 1:49.966 6 56.6
3 19 Olsen, Thomas Kjer DEN DMU Husqvarna 35:25.947 18 0:05.319 0:01.433 1:50.274 6 56.4
4 426 Mewse, Conrad GBR ACU KTM 35:27.181 18 0:06.553 0:01.234 1:50.605 2 56.3
5 96 Lawrence, Hunter AUS MA Honda 35:27.941 18 0:07.313 0:00.760 1:50.923 6 56.1
6 57 Sanayei, Darian USA ACU Kawasaki 35:32.116 18 0:11.488 0:04.175 1:49.836 15 56.7
7 10 Vlaanderen, Calvin RSA KNMV Honda 35:37.172 18 0:16.544 0:05.056 1:51.484 8 55.8
8 14 Beaton, Jed AUS MA Kawasaki 35:43.862 18 0:23.234 0:06.690 1:51.772 7 55.7
9 321 Bernardini, Samuele ITA FMI TM 35:59.283 18 0:38.655 0:15.421 1:51.952 2 55.6
10 811 Sterry, Adam GBR ACU Kawasaki 36:03.265 18 0:42.637 0:03.982 1:52.193 7 55.5
11 98 Vaessen, Bas NED KNMV Honda 36:06.808 18 0:46.180 0:03.543 1:52.207 4 55.5
12 29 Jacobi, Henry GER DMSB Husqvarna 36:04.168 18 0:43.540 -1:57.360 1:52.797 2 55.2
13 199 Zaragoza, Jorge ESP RFME Yamaha 36:09.214 18 0:48.586 0:05.046 1:52.723 4 55.2
14 919 Watson, Ben GBR ACU Yamaha 36:11.130 18 0:50.502 0:01.916 1:52.665 4 55.2
15 46 Pootjes, Davy NED KNMV KTM 36:13.887 18 0:53.259 0:02.757 1:52.357 5 55.4
16 118 Rubini, Stephen FRA FFM KTM 36:23.803 18 1:03.175 0:09.916 1:52.185 7 55.5
17 64 Covington, Thomas USA MUL Husqvarna 36:20.029 18 0:59.401 -1:56.226 1:51.773 5 55.7
18 161 Östlund, Alvin SWE SVEMO Yamaha 36:24.918 18 1:04.290 0:04.889 1:53.307 11 54.9
19 70 Fernandez, Ruben ESP RFME Kawasaki 36:26.291 18 1:05.663 0:01.373 1:53.355 8 54.9
20 18 Brylyakov, Vsevolod RUS MFR Yamaha 36:26.617 18 1:05.989 0:00.326 1:53.023 6 55.1
21 172 Van doninck, Brent BEL FMB Husqvarna 36:36.958 18 1:16.330 0:10.341 1:51.703 3 55.7
22 66 Larranaga Olano, Iker ESP RFME Husqvarna 36:37.496 18 1:16.868 0:00.538 1:52.076 4 55.5
23 56 Weltin, Marshal USA AMA Honda 36:37.636 18 1:17.008 0:00.140 1:54.886 4 54.2
24 193 Geerts, Jago BEL FMB Yamaha 36:40.080 18 1:19.452 0:02.444 1:53.570 14 54.8
25 338 Herbreteau, David FRA FFM KTM 36:56.711 18 1:36.083 0:16.631 1:55.651 9 53.8
26 75 Roosiorg, Hardi EST EMF KTM 36:58.980 18 1:38.352 0:02.269 1:55.190 5 54
27 44 Lesiardo, Morgan ITA FMI KTM 37:01.311 18 1:40.683 0:02.331 1:55.083 5 54.1
28 226 Koch, Tom GER DMSB KTM 35:29.615 17 1 lap 1 lap 1:56.372 4 53.5
29 102 Sikyna, Richard SVK SMF KTM 35:35.631 17 1 lap 0:06.016 1:55.861 5 53.7
30 26 Bertuzzi, Nicola ITA FMI KTM 35:54.442 17 1 lap 0:18.811 1:57.302 3 53
31 773 Do, Thomas FRA FFM KTM 36:05.289 17 1 lap 0:10.847 1:57.170 3 53.1
32 331 Freidig, Loris SUI FMS Husqvarna 36:46.952 17 1 lap 0:41.663 1:58.611 2 52.5
33 783 Toriani, Enzo FRA FFM Husqvarna 8:09.591 3 15 laps 14 laps 1:57.997 2 52.7
34 101 Pichon, Zachary FRA FFM KTM 8:24.616 3 15 laps 0:15.025 1:57.797 2 52.8

En la segunda manga Pauls Jonass ha vuelto ha dejar claro que quiere dar el salto a MXGP ganando un nuevo título. El de KTM ha conseguido una holgada renta en las primeras vueltas, aunque a medida que pasaron los minutos sintió la amenaza de Darian Sanayei, que justo acabaría segundo por delante de Prado en la carrera.

No tuvieron nada de suerte Jorge Zaragoza ni Iker Larrañaga. El de Yamaha Ausió se fue al suelo en la misma línea de Holeshot pero pese a perder unos valiosos segundos que le dejaron último remontó hasta la posición 24. Larrañaga volvió a verse las caras con la mala fortuna y ha estar obligado a remontar. Un fallo en el primer giro le llevó a las posiciones finales y, aún así, ha mostrado una gran versión, como lo viene haciendo este curso, para acabar décimoquinto la carrera.

MX2 – Grand Prix Race 2 – Classification
Pos Nr Rider Nat. Fed. Bike Time laps Diff. First Diff. Prev. Bestlaptime in lap Speed
1 1 Jonass, Pauls LAT LAMSF KTM 34:59.912 18 0:00.000 0:00.000 1:49.842 6 56.6
2 57 Sanayei, Darian USA ACU Kawasaki 35:07.687 18 0:07.775 0:07.775 1:48.751 10 57.2
3 61 Prado, Jorge ESP RFME KTM 35:12.051 18 0:12.139 0:04.364 1:50.147 6 56.5
4 19 Olsen, Thomas Kjer DEN DMU Husqvarna 35:12.468 18 0:12.556 0:00.417 1:49.809 6 56.7
5 96 Lawrence, Hunter AUS MA Honda 35:22.528 18 0:22.616 0:10.060 1:50.267 6 56.4
6 14 Beaton, Jed AUS MA Kawasaki 35:29.009 18 0:29.097 0:06.481 1:51.357 7 55.9
7 10 Vlaanderen, Calvin RSA KNMV Honda 35:30.241 18 0:30.329 0:01.232 1:51.527 11 55.8
8 919 Watson, Ben GBR ACU Yamaha 35:33.439 18 0:33.527 0:03.198 1:51.139 10 56
9 426 Mewse, Conrad GBR ACU KTM 35:41.507 18 0:41.595 0:08.068 1:50.970 11 56.1
10 18 Brylyakov, Vsevolod RUS MFR Yamaha 35:52.663 18 0:52.751 0:11.156 1:51.356 5 55.9
11 98 Vaessen, Bas NED KNMV Honda 35:57.225 18 0:57.313 0:04.562 1:52.170 4 55.5
12 70 Fernandez, Ruben ESP RFME Kawasaki 35:58.301 18 0:58.389 0:01.076 1:51.980 8 55.6
13 46 Pootjes, Davy NED KNMV KTM 36:07.451 18 1:07.539 0:09.150 1:51.261 8 55.9
14 811 Sterry, Adam GBR ACU Kawasaki 36:09.419 18 1:09.507 0:01.968 1:52.831 14 55.1
15 66 Larranaga Olano, Iker ESP RFME Husqvarna 36:09.987 18 1:10.075 0:00.568 1:51.998 7 55.6
16 321 Bernardini, Samuele ITA FMI TM 36:13.560 18 1:13.648 0:03.573 1:53.253 3 54.9
17 193 Geerts, Jago BEL FMB Yamaha 36:14.767 18 1:14.855 0:01.207 1:52.431 7 55.3
18 172 Van doninck, Brent BEL FMB Husqvarna 36:18.386 18 1:18.474 0:03.619 1:52.878 9 55.1
19 64 Covington, Thomas USA MUL Husqvarna 36:21.847 18 1:21.935 0:03.461 1:51.257 8 55.9
20 118 Rubini, Stephen FRA FFM KTM 36:27.116 18 1:27.204 0:05.269 1:53.370 8 54.9
21 161 Östlund, Alvin SWE SVEMO Yamaha 36:27.798 18 1:27.886 0:00.682 1:53.077 6 55
22 56 Weltin, Marshal USA AMA Honda 36:40.241 18 1:40.329 0:12.443 1:54.277 4 54.4
23 101 Pichon, Zachary FRA FFM KTM 36:50.803 18 1:50.891 0:10.562 1:55.182 2 54
24 199 Zaragoza, Jorge ESP RFME Yamaha 36:51.370 18 1:51.458 0:00.567 1:51.177 2 56
25 75 Roosiorg, Hardi EST EMF KTM 35:15.747 17 1 lap 1 lap 1:55.874 5 53.7
26 44 Lesiardo, Morgan ITA FMI KTM 35:21.571 17 1 lap 0:05.824 1:55.354 5 53.9
27 102 Sikyna, Richard SVK SMF KTM 35:34.542 17 1 lap 0:12.971 1:56.868 7 53.2
28 226 Koch, Tom GER DMSB KTM 35:35.559 17 1 lap 0:01.017 1:56.369 7 53.5
29 773 Do, Thomas FRA FFM KTM 36:01.617 17 1 lap 0:26.058 1:56.528 1 53.4
30 331 Freidig, Loris SUI FMS Husqvarna 36:11.362 17 1 lap 0:09.745 1:58.680 7 52.4
31 783 Toriani, Enzo FRA FFM Husqvarna 36:12.400 17 1 lap 0:01.038 1:58.660 2 52.4
32 338 Herbreteau, David FRA FFM KTM 29:23.011 14 4 laps 3 laps 1:55.524 3 53.9
33 26 Bertuzzi, Nicola ITA FMI KTM 18:07.006 8 10 laps 6 laps 1:56.970 5 53.2
34 29 Jacobi, Henry GER DMSB Husqvarna 22:12.662 4 14 laps 4 laps 1:53.558 3 54.8
MX2 – GP Classification
Pos Nr Rider Nat. Fed. Bike Race 1 Race 2 Total
1 1 Jonass, Pauls LAT LAMSF KTM 25 25 50
2 61 Prado, Jorge ESP RFME KTM 22 20 42
3 19 Olsen, Thomas Kjer DEN DMU HUS 20 18 38
4 57 Sanayei, Darian USA ACU KAW 15 22 37
5 96 Lawrence, Hunter AUS MA HON 16 16 32
6 426 Mewse, Conrad GBR ACU KTM 18 12 30
7 14 Beaton, Jed AUS MA KAW 13 15 28
8 10 Vlaanderen, Calvin RSA KNMV HON 14 14 28
9 919 Watson, Ben GBR ACU YAM 7 13 20
10 98 Vaessen, Bas NED KNMV HON 10 10 20
11 811 Sterry, Adam GBR ACU KAW 11 7 18
12 321 Bernardini, Samuele ITA FMI TM 12 5 17
13 46 Pootjes, Davy NED KNMV KTM 6 8 14
14 18 Brylyakov, Vsevolod RUS MFR YAM 1 11 12
15 70 Fernandez, Ruben ESP RFME KAW 2 9 11
16 29 Jacobi, Henry GER DMSB HUS 9 0 9
17 199 Zaragoza, Jorge ESP RFME YAM 8 0 8
18 66 Larranaga Olano, Iker ESP RFME HUS 0 6 6
19 64 Covington, Thomas USA MUL HUS 4 2 6
20 118 Rubini, Stephen FRA FFM KTM 5 1 6
21 193 Geerts, Jago BEL FMB YAM 0 4 4
22 172 Van doninck, Brent BEL FMB HUS 0 3 3
23 161 Östlund, Alvin SWE SVEMO YAM 3 0 3
24 56 Weltin, Marshal USA AMA HON 0 0 0
25 101 Pichon, Zachary FRA FFM KTM 0 0 0
26 75 Roosiorg, Hardi EST EMF KTM 0 0 0
27 44 Lesiardo, Morgan ITA FMI KTM 0 0 0
28 102 Sikyna, Richard SVK SMF KTM 0 0 0
29 226 Koch, Tom GER DMSB KTM 0 0 0
30 773 Do, Thomas FRA FFM KTM 0 0 0
31 331 Freidig, Loris SUI FMS HUS 0 0 0
32 783 Toriani, Enzo FRA FFM HUS 0 0 0
33 338 Herbreteau, David FRA FFM KTM 0 0 0
34 26 Bertuzzi, Nicola ITA FMI KTM 0 0 0

Más posts sobre

Onboard Magazine 123

¿Quieres más MX?
Suscríbete a nuestro newsletter
Nuestra Revista
Onboard Magazine 123
Calendario CE MX
29-30 Ene
Montearagón. Toledo
Circ. Tajoa Racing
12-13 Feb
Albaida. Valencia
Circ. Complex Motor
12-13 Mar
Talavera de la Reina. Toledo
Circ. Cerro Negro
26-27 Mar
Calatayud. Zaragoza
Circ. Castillo de Ayud
16-17 Abr
Valverde del Camino. Huelva
Circ. Las Arenas
20-01 May
Alcañiz. Teruel
Circ. MX MotorLand Aragón
21-22 May
Bellpuig. Lleida
Circ. MX Montperler
Calendario MX
20 Feb
MXGP de Gran Bretaña
Matterley Basin
06 Mar
MXGP de Lombardia
Mantova
20 Mar
MXGP de Patagonia
Villa La Angostura
03 Abr
MXGP de Portugal
Agueda
10 Abr
MXGP de Trentino (ITA)
Pietramurata
24 Abr
MXGP de Letonia
Kegums
08 May
MXGP de Italia
Maggiora
15 May
MXGP de Cerdeña
Riola Sardo
29 May
MXGP de España
intu Xanadú - Arroyomolinos
05 Jun
MXGP de Francia
Ernee
12 Jun
MXGP de Alemania
Teutschenthal
26 Jun
MXGP de Indonesia
Samota-Sumbawa
17 Jul
MXGP de la Rep. Checa
Loket
24 Jul
MXGP de Flandes (Bel)
Lommel
07 Ago
MXGP de Suecia
Uddevalla
14 Ago
MXGP de Finlandia
Iitti-KymiRing
21 Ago
MXGP de Charente Maritime
St Jean d'Angely
04 Sep
MXGP de Turquía
Afyonkarahisar
10 Sep
MXGP de Oman
Mussanah
25 Sep
MX de las Naciones
RedBud
Posts + Leídos
Vídeos
El piloto gallego de GasGas Factory Racing nos resume su sábado en Uddevalla, a la vez que nos explica qué le pasó en Lommel hace dos semanas y muchas cosas más.
Rubén Fernández consiguió en Indonesia su segundo podio en la categoría reina. Ademas de subir con Jorge Prado al podio y hacer historia para el MX español, Esto fue lo que Rubén nos dijo...
On Track Off Road

Instagram